sensor_id;sensor_type;location;lat;lon;timestamp;P1;durP1;ratioP1;P2;durP2;ratioP2
38123;SDS011;23934;47.998;9.832;2024-03-08T00:00:40;53.30;;;15.98;;
38123;SDS011;23934;47.998;9.832;2024-03-08T00:03:08;63.88;;;18.48;;
38123;SDS011;23934;47.998;9.832;2024-03-08T00:05:35;53.63;;;16.55;;
38123;SDS011;23934;47.998;9.832;2024-03-08T00:08:01;52.55;;;16.33;;
38123;SDS011;23934;47.998;9.832;2024-03-08T00:10:27;48.65;;;15.43;;
38123;SDS011;23934;47.998;9.832;2024-03-08T00:12:56;58.67;;;16.35;;
38123;SDS011;23934;47.998;9.832;2024-03-08T00:15:22;63.72;;;16.60;;
38123;SDS011;23934;47.998;9.832;2024-03-08T00:17:48;68.03;;;18.75;;
38123;SDS011;23934;47.998;9.832;2024-03-08T00:20:15;60.38;;;17.60;;
38123;SDS011;23934;47.998;9.832;2024-03-08T00:22:42;53.00;;;16.88;;
38123;SDS011;23934;47.998;9.832;2024-03-08T00:25:09;64.78;;;17.60;;
38123;SDS011;23934;47.998;9.832;2024-03-08T00:27:35;56.03;;;15.95;;
38123;SDS011;23934;47.998;9.832;2024-03-08T00:30:01;63.03;;;18.00;;
38123;SDS011;23934;47.998;9.832;2024-03-08T00:32:27;63.35;;;17.55;;
38123;SDS011;23934;47.998;9.832;2024-03-08T00:34:53;56.85;;;18.10;;
38123;SDS011;23934;47.998;9.832;2024-03-08T00:37:20;68.95;;;17.70;;
38123;SDS011;23934;47.998;9.832;2024-03-08T00:39:51;50.65;;;15.85;;
38123;SDS011;23934;47.998;9.832;2024-03-08T00:42:18;58.03;;;15.88;;
38123;SDS011;23934;47.998;9.832;2024-03-08T00:44:44;66.10;;;15.10;;
38123;SDS011;23934;47.998;9.832;2024-03-08T00:47:10;58.50;;;17.13;;
38123;SDS011;23934;47.998;9.832;2024-03-08T00:49:36;59.88;;;17.67;;
38123;SDS011;23934;47.998;9.832;2024-03-08T00:52:03;73.32;;;19.83;;
38123;SDS011;23934;47.998;9.832;2024-03-08T00:54:32;63.65;;;17.98;;
38123;SDS011;23934;47.998;9.832;2024-03-08T00:56:58;60.90;;;18.05;;
38123;SDS011;23934;47.998;9.832;2024-03-08T00:59:27;62.42;;;16.90;;
38123;SDS011;23934;47.998;9.832;2024-03-08T01:01:53;55.20;;;16.33;;
38123;SDS011;23934;47.998;9.832;2024-03-08T01:04:19;68.65;;;17.92;;
38123;SDS011;23934;47.998;9.832;2024-03-08T01:06:46;72.13;;;19.55;;
38123;SDS011;23934;47.998;9.832;2024-03-08T01:09:12;69.45;;;19.08;;
38123;SDS011;23934;47.998;9.832;2024-03-08T01:11:38;58.63;;;17.95;;
38123;SDS011;23934;47.998;9.832;2024-03-08T01:14:05;68.63;;;18.02;;
38123;SDS011;23934;47.998;9.832;2024-03-08T01:16:31;52.28;;;18.52;;
38123;SDS011;23934;47.998;9.832;2024-03-08T01:18:58;66.65;;;18.23;;
38123;SDS011;23934;47.998;9.832;2024-03-08T01:21:24;59.63;;;17.38;;
38123;SDS011;23934;47.998;9.832;2024-03-08T01:23:50;59.33;;;18.83;;
38123;SDS011;23934;47.998;9.832;2024-03-08T01:26:16;53.35;;;14.40;;
38123;SDS011;23934;47.998;9.832;2024-03-08T01:28:42;47.85;;;15.98;;
38123;SDS011;23934;47.998;9.832;2024-03-08T01:31:08;73.63;;;21.05;;
38123;SDS011;23934;47.998;9.832;2024-03-08T01:33:34;61.53;;;18.05;;
38123;SDS011;23934;47.998;9.832;2024-03-08T01:35:59;75.60;;;19.35;;
38123;SDS011;23934;47.998;9.832;2024-03-08T01:38:25;68.47;;;19.13;;
38123;SDS011;23934;47.998;9.832;2024-03-08T01:40:51;56.58;;;17.20;;
38123;SDS011;23934;47.998;9.832;2024-03-08T01:43:21;70.32;;;19.67;;
38123;SDS011;23934;47.998;9.832;2024-03-08T01:45:47;68.65;;;19.95;;
38123;SDS011;23934;47.998;9.832;2024-03-08T01:48:14;68.05;;;18.50;;
38123;SDS011;23934;47.998;9.832;2024-03-08T01:50:40;59.17;;;18.42;;
38123;SDS011;23934;47.998;9.832;2024-03-08T01:53:07;75.63;;;20.88;;
38123;SDS011;23934;47.998;9.832;2024-03-08T01:55:35;75.57;;;19.98;;
38123;SDS011;23934;47.998;9.832;2024-03-08T01:58:01;65.93;;;17.85;;
38123;SDS011;23934;47.998;9.832;2024-03-08T02:00:27;68.13;;;18.77;;
38123;SDS011;23934;47.998;9.832;2024-03-08T02:02:54;72.70;;;18.48;;
38123;SDS011;23934;47.998;9.832;2024-03-08T02:05:21;62.50;;;18.13;;
38123;SDS011;23934;47.998;9.832;2024-03-08T02:07:51;58.50;;;17.55;;
38123;SDS011;23934;47.998;9.832;2024-03-08T02:10:17;58.97;;;18.05;;
38123;SDS011;23934;47.998;9.832;2024-03-08T02:12:43;70.18;;;17.92;;
38123;SDS011;23934;47.998;9.832;2024-03-08T02:15:09;71.95;;;17.13;;
38123;SDS011;23934;47.998;9.832;2024-03-08T02:17:35;75.45;;;20.95;;
38123;SDS011;23934;47.998;9.832;2024-03-08T02:20:01;72.43;;;19.90;;
38123;SDS011;23934;47.998;9.832;2024-03-08T02:22:28;74.47;;;20.63;;
38123;SDS011;23934;47.998;9.832;2024-03-08T02:24:56;61.83;;;18.92;;
38123;SDS011;23934;47.998;9.832;2024-03-08T02:27:23;70.15;;;18.92;;
38123;SDS011;23934;47.998;9.832;2024-03-08T02:29:50;77.57;;;20.42;;
38123;SDS011;23934;47.998;9.832;2024-03-08T02:32:16;77.18;;;20.88;;
38123;SDS011;23934;47.998;9.832;2024-03-08T02:34:43;74.85;;;20.73;;
38123;SDS011;23934;47.998;9.832;2024-03-08T02:37:08;75.50;;;22.08;;
38123;SDS011;23934;47.998;9.832;2024-03-08T02:39:34;77.72;;;20.50;;
38123;SDS011;23934;47.998;9.832;2024-03-08T02:42:00;71.85;;;20.90;;
38123;SDS011;23934;47.998;9.832;2024-03-08T02:44:26;63.50;;;17.73;;
38123;SDS011;23934;47.998;9.832;2024-03-08T02:46:52;75.72;;;21.13;;
38123;SDS011;23934;47.998;9.832;2024-03-08T02:49:20;72.68;;;20.90;;
38123;SDS011;23934;47.998;9.832;2024-03-08T02:51:46;69.18;;;20.70;;
38123;SDS011;23934;47.998;9.832;2024-03-08T02:54:12;77.88;;;21.08;;
38123;SDS011;23934;47.998;9.832;2024-03-08T02:56:38;93.20;;;23.52;;
38123;SDS011;23934;47.998;9.832;2024-03-08T02:59:03;79.93;;;23.30;;
38123;SDS011;23934;47.998;9.832;2024-03-08T03:01:29;80.28;;;21.02;;
38123;SDS011;23934;47.998;9.832;2024-03-08T03:03:57;81.07;;;21.60;;
38123;SDS011;23934;47.998;9.832;2024-03-08T03:06:23;79.95;;;21.63;;
38123;SDS011;23934;47.998;9.832;2024-03-08T03:08:49;80.30;;;23.52;;
38123;SDS011;23934;47.998;9.832;2024-03-08T03:11:16;78.53;;;20.42;;
38123;SDS011;23934;47.998;9.832;2024-03-08T03:13:42;83.75;;;23.33;;
38123;SDS011;23934;47.998;9.832;2024-03-08T03:16:16;72.95;;;19.42;;
38123;SDS011;23934;47.998;9.832;2024-03-08T03:18:43;83.35;;;20.90;;
38123;SDS011;23934;47.998;9.832;2024-03-08T03:21:10;76.25;;;21.27;;
38123;SDS011;23934;47.998;9.832;2024-03-08T03:23:37;71.97;;;20.65;;
38123;SDS011;23934;47.998;9.832;2024-03-08T03:26:04;77.60;;;20.80;;
38123;SDS011;23934;47.998;9.832;2024-03-08T03:28:32;83.32;;;21.73;;
38123;SDS011;23934;47.998;9.832;2024-03-08T03:30:58;78.38;;;22.08;;
38123;SDS011;23934;47.998;9.832;2024-03-08T03:33:24;73.30;;;21.85;;
38123;SDS011;23934;47.998;9.832;2024-03-08T03:35:50;77.28;;;22.00;;
38123;SDS011;23934;47.998;9.832;2024-03-08T03:38:19;73.78;;;18.50;;
38123;SDS011;23934;47.998;9.832;2024-03-08T03:40:48;74.32;;;21.80;;
38123;SDS011;23934;47.998;9.832;2024-03-08T03:43:17;79.82;;;22.20;;
38123;SDS011;23934;47.998;9.832;2024-03-08T03:45:43;82.28;;;22.90;;
38123;SDS011;23934;47.998;9.832;2024-03-08T03:48:09;75.03;;;21.65;;
38123;SDS011;23934;47.998;9.832;2024-03-08T03:50:35;65.03;;;18.17;;
38123;SDS011;23934;47.998;9.832;2024-03-08T03:53:02;78.70;;;21.08;;
38123;SDS011;23934;47.998;9.832;2024-03-08T03:55:28;73.32;;;19.25;;
38123;SDS011;23934;47.998;9.832;2024-03-08T03:57:54;61.40;;;19.15;;
38123;SDS011;23934;47.998;9.832;2024-03-08T04:00:20;78.15;;;20.98;;
38123;SDS011;23934;47.998;9.832;2024-03-08T04:02:46;68.75;;;20.30;;
38123;SDS011;23934;47.998;9.832;2024-03-08T04:05:12;79.38;;;19.23;;
38123;SDS011;23934;47.998;9.832;2024-03-08T04:07:38;62.72;;;19.83;;
38123;SDS011;23934;47.998;9.832;2024-03-08T04:10:05;59.72;;;17.80;;
38123;SDS011;23934;47.998;9.832;2024-03-08T04:12:32;58.45;;;16.50;;
38123;SDS011;23934;47.998;9.832;2024-03-08T04:14:58;70.32;;;19.60;;
38123;SDS011;23934;47.998;9.832;2024-03-08T04:17:24;71.45;;;18.83;;
38123;SDS011;23934;47.998;9.832;2024-03-08T04:19:50;64.00;;;16.65;;
38123;SDS011;23934;47.998;9.832;2024-03-08T04:22:16;66.00;;;16.95;;
38123;SDS011;23934;47.998;9.832;2024-03-08T04:24:43;56.67;;;17.70;;
38123;SDS011;23934;47.998;9.832;2024-03-08T04:27:09;73.07;;;18.48;;
38123;SDS011;23934;47.998;9.832;2024-03-08T04:29:35;61.38;;;17.30;;
38123;SDS011;23934;47.998;9.832;2024-03-08T04:32:02;66.40;;;19.23;;
38123;SDS011;23934;47.998;9.832;2024-03-08T04:34:29;66.78;;;18.67;;
38123;SDS011;23934;47.998;9.832;2024-03-08T04:36:56;66.40;;;17.20;;
38123;SDS011;23934;47.998;9.832;2024-03-08T04:39:23;62.63;;;19.98;;
38123;SDS011;23934;47.998;9.832;2024-03-08T04:41:49;72.22;;;19.23;;
38123;SDS011;23934;47.998;9.832;2024-03-08T04:44:15;73.70;;;20.83;;
38123;SDS011;23934;47.998;9.832;2024-03-08T04:46:42;68.22;;;18.23;;
38123;SDS011;23934;47.998;9.832;2024-03-08T04:49:09;55.92;;;17.02;;
38123;SDS011;23934;47.998;9.832;2024-03-08T04:51:36;50.80;;;15.52;;
38123;SDS011;23934;47.998;9.832;2024-03-08T04:54:02;61.65;;;15.63;;
38123;SDS011;23934;47.998;9.832;2024-03-08T04:56:29;73.28;;;21.20;;
38123;SDS011;23934;47.998;9.832;2024-03-08T04:58:56;65.68;;;18.42;;
38123;SDS011;23934;47.998;9.832;2024-03-08T05:01:22;71.90;;;17.40;;
38123;SDS011;23934;47.998;9.832;2024-03-08T05:03:48;57.80;;;18.13;;
38123;SDS011;23934;47.998;9.832;2024-03-08T05:06:15;73.40;;;19.42;;
38123;SDS011;23934;47.998;9.832;2024-03-08T05:08:41;63.90;;;18.85;;
38123;SDS011;23934;47.998;9.832;2024-03-08T05:11:07;66.13;;;18.90;;
38123;SDS011;23934;47.998;9.832;2024-03-08T05:13:34;69.10;;;20.92;;
38123;SDS011;23934;47.998;9.832;2024-03-08T05:16:00;58.92;;;13.32;;
38123;SDS011;23934;47.998;9.832;2024-03-08T05:18:26;65.38;;;18.67;;
38123;SDS011;23934;47.998;9.832;2024-03-08T05:20:57;70.43;;;18.40;;
38123;SDS011;23934;47.998;9.832;2024-03-08T05:23:23;60.97;;;18.38;;
38123;SDS011;23934;47.998;9.832;2024-03-08T05:25:49;74.60;;;20.67;;
38123;SDS011;23934;47.998;9.832;2024-03-08T05:28:15;69.35;;;20.85;;
38123;SDS011;23934;47.998;9.832;2024-03-08T05:30:41;67.18;;;18.92;;
38123;SDS011;23934;47.998;9.832;2024-03-08T05:33:07;63.03;;;17.73;;
38123;SDS011;23934;47.998;9.832;2024-03-08T05:35:35;75.40;;;19.80;;
38123;SDS011;23934;47.998;9.832;2024-03-08T05:38:01;74.80;;;20.65;;
38123;SDS011;23934;47.998;9.832;2024-03-08T05:40:27;75.38;;;21.55;;
38123;SDS011;23934;47.998;9.832;2024-03-08T05:42:57;77.85;;;20.98;;
38123;SDS011;23934;47.998;9.832;2024-03-08T05:45:24;75.45;;;20.50;;
38123;SDS011;23934;47.998;9.832;2024-03-08T05:47:50;86.32;;;20.60;;
38123;SDS011;23934;47.998;9.832;2024-03-08T05:50:16;81.22;;;23.30;;
38123;SDS011;23934;47.998;9.832;2024-03-08T05:52:43;92.70;;;20.85;;
38123;SDS011;23934;47.998;9.832;2024-03-08T05:55:09;77.10;;;20.75;;
38123;SDS011;23934;47.998;9.832;2024-03-08T05:57:35;69.75;;;19.92;;
38123;SDS011;23934;47.998;9.832;2024-03-08T06:00:04;87.38;;;20.80;;
38123;SDS011;23934;47.998;9.832;2024-03-08T06:02:31;73.53;;;21.08;;
38123;SDS011;23934;47.998;9.832;2024-03-08T06:04:57;72.97;;;19.73;;
38123;SDS011;23934;47.998;9.832;2024-03-08T06:07:23;85.05;;;23.67;;
38123;SDS011;23934;47.998;9.832;2024-03-08T06:09:49;90.63;;;24.38;;
38123;SDS011;23934;47.998;9.832;2024-03-08T06:12:15;70.55;;;21.10;;
38123;SDS011;23934;47.998;9.832;2024-03-08T06:14:44;66.25;;;19.42;;
38123;SDS011;23934;47.998;9.832;2024-03-08T06:17:10;77.97;;;20.23;;
38123;SDS011;23934;47.998;9.832;2024-03-08T06:19:36;78.30;;;19.67;;
38123;SDS011;23934;47.998;9.832;2024-03-08T06:22:02;82.40;;;21.35;;
38123;SDS011;23934;47.998;9.832;2024-03-08T06:24:31;80.82;;;21.75;;
38123;SDS011;23934;47.998;9.832;2024-03-08T06:26:57;67.60;;;19.88;;
38123;SDS011;23934;47.998;9.832;2024-03-08T06:29:23;76.35;;;19.27;;
38123;SDS011;23934;47.998;9.832;2024-03-08T06:31:49;72.97;;;19.75;;
38123;SDS011;23934;47.998;9.832;2024-03-08T06:34:15;102.93;;;23.73;;
38123;SDS011;23934;47.998;9.832;2024-03-08T06:36:42;80.60;;;22.08;;
38123;SDS011;23934;47.998;9.832;2024-03-08T06:39:09;77.10;;;23.05;;
38123;SDS011;23934;47.998;9.832;2024-03-08T06:41:38;82.72;;;23.00;;
38123;SDS011;23934;47.998;9.832;2024-03-08T06:44:04;82.82;;;21.33;;
38123;SDS011;23934;47.998;9.832;2024-03-08T06:46:32;77.85;;;17.40;;
38123;SDS011;23934;47.998;9.832;2024-03-08T06:48:58;74.28;;;20.65;;
38123;SDS011;23934;47.998;9.832;2024-03-08T06:51:24;70.88;;;19.48;;
38123;SDS011;23934;47.998;9.832;2024-03-08T06:53:50;71.75;;;19.10;;
38123;SDS011;23934;47.998;9.832;2024-03-08T06:56:18;90.30;;;23.00;;
38123;SDS011;23934;47.998;9.832;2024-03-08T06:58:44;79.75;;;21.25;;
38123;SDS011;23934;47.998;9.832;2024-03-08T07:01:10;63.25;;;19.48;;
38123;SDS011;23934;47.998;9.832;2024-03-08T07:03:39;75.95;;;21.83;;
38123;SDS011;23934;47.998;9.832;2024-03-08T07:06:09;84.88;;;19.98;;
38123;SDS011;23934;47.998;9.832;2024-03-08T07:08:34;80.10;;;18.73;;
38123;SDS011;23934;47.998;9.832;2024-03-08T07:11:00;78.85;;;20.20;;
38123;SDS011;23934;47.998;9.832;2024-03-08T07:13:27;71.60;;;18.65;;
38123;SDS011;23934;47.998;9.832;2024-03-08T07:15:54;60.33;;;16.10;;
38123;SDS011;23934;47.998;9.832;2024-03-08T07:18:20;83.72;;;21.25;;
38123;SDS011;23934;47.998;9.832;2024-03-08T07:20:47;83.50;;;21.10;;
38123;SDS011;23934;47.998;9.832;2024-03-08T07:23:14;91.75;;;24.67;;
38123;SDS011;23934;47.998;9.832;2024-03-08T07:26:00;79.20;;;18.90;;
38123;SDS011;23934;47.998;9.832;2024-03-08T07:28:26;71.90;;;19.92;;
38123;SDS011;23934;47.998;9.832;2024-03-08T07:30:52;97.75;;;23.42;;
38123;SDS011;23934;47.998;9.832;2024-03-08T07:33:26;80.40;;;17.67;;
38123;SDS011;23934;47.998;9.832;2024-03-08T07:35:52;72.90;;;19.85;;
38123;SDS011;23934;47.998;9.832;2024-03-08T07:38:18;59.65;;;16.40;;
38123;SDS011;23934;47.998;9.832;2024-03-08T07:40:46;76.07;;;17.75;;
38123;SDS011;23934;47.998;9.832;2024-03-08T07:43:13;70.20;;;19.17;;
38123;SDS011;23934;47.998;9.832;2024-03-08T07:45:39;59.35;;;17.25;;
38123;SDS011;23934;47.998;9.832;2024-03-08T07:48:05;81.55;;;20.35;;
38123;SDS011;23934;47.998;9.832;2024-03-08T07:50:37;74.40;;;18.25;;
38123;SDS011;23934;47.998;9.832;2024-03-08T07:53:04;75.60;;;21.55;;
38123;SDS011;23934;47.998;9.832;2024-03-08T07:55:31;71.95;;;19.30;;
38123;SDS011;23934;47.998;9.832;2024-03-08T07:57:57;73.50;;;19.88;;
38123;SDS011;23934;47.998;9.832;2024-03-08T08:00:23;78.25;;;19.17;;
38123;SDS011;23934;47.998;9.832;2024-03-08T08:02:52;60.53;;;17.00;;
38123;SDS011;23934;47.998;9.832;2024-03-08T08:05:18;73.50;;;20.13;;
38123;SDS011;23934;47.998;9.832;2024-03-08T08:07:44;69.07;;;18.77;;
38123;SDS011;23934;47.998;9.832;2024-03-08T08:10:11;64.63;;;18.48;;
38123;SDS011;23934;47.998;9.832;2024-03-08T08:12:43;65.18;;;17.15;;
38123;SDS011;23934;47.998;9.832;2024-03-08T08:15:09;59.60;;;18.40;;
38123;SDS011;23934;47.998;9.832;2024-03-08T08:17:35;65.32;;;18.35;;
38123;SDS011;23934;47.998;9.832;2024-03-08T08:20:01;65.30;;;18.23;;
38123;SDS011;23934;47.998;9.832;2024-03-08T08:22:30;57.85;;;17.67;;
38123;SDS011;23934;47.998;9.832;2024-03-08T08:24:57;63.55;;;17.77;;
38123;SDS011;23934;47.998;9.832;2024-03-08T08:27:23;54.20;;;16.50;;
38123;SDS011;23934;47.998;9.832;2024-03-08T08:29:51;57.75;;;15.70;;
38123;SDS011;23934;47.998;9.832;2024-03-08T08:32:17;51.95;;;13.63;;
38123;SDS011;23934;47.998;9.832;2024-03-08T08:34:43;60.80;;;14.93;;
38123;SDS011;23934;47.998;9.832;2024-03-08T08:37:09;50.70;;;16.88;;
38123;SDS011;23934;47.998;9.832;2024-03-08T08:39:35;64.88;;;18.15;;
38123;SDS011;23934;47.998;9.832;2024-03-08T08:42:02;53.10;;;12.13;;
38123;SDS011;23934;47.998;9.832;2024-03-08T08:44:28;26.00;;;8.55;;
38123;SDS011;23934;47.998;9.832;2024-03-08T08:46:56;32.70;;;10.90;;
38123;SDS011;23934;47.998;9.832;2024-03-08T08:49:22;48.25;;;14.38;;
38123;SDS011;23934;47.998;9.832;2024-03-08T08:51:49;44.30;;;12.48;;
38123;SDS011;23934;47.998;9.832;2024-03-08T08:54:15;21.10;;;7.05;;
38123;SDS011;23934;47.998;9.832;2024-03-08T08:56:42;52.40;;;15.10;;
38123;SDS011;23934;47.998;9.832;2024-03-08T08:59:12;31.88;;;11.18;;
38123;SDS011;23934;47.998;9.832;2024-03-08T09:01:44;58.35;;;16.52;;
38123;SDS011;23934;47.998;9.832;2024-03-08T09:04:12;53.80;;;14.55;;
38123;SDS011;23934;47.998;9.832;2024-03-08T09:06:38;47.83;;;10.95;;
38123;SDS011;23934;47.998;9.832;2024-03-08T09:09:07;45.22;;;13.10;;
38123;SDS011;23934;47.998;9.832;2024-03-08T09:11:34;51.65;;;13.63;;
38123;SDS011;23934;47.998;9.832;2024-03-08T09:14:00;53.80;;;14.43;;
38123;SDS011;23934;47.998;9.832;2024-03-08T09:16:27;59.58;;;16.88;;
38123;SDS011;23934;47.998;9.832;2024-03-08T09:18:53;37.55;;;10.75;;
38123;SDS011;23934;47.998;9.832;2024-03-08T09:21:19;56.97;;;15.07;;
38123;SDS011;23934;47.998;9.832;2024-03-08T09:23:45;49.10;;;13.38;;
38123;SDS011;23934;47.998;9.832;2024-03-08T09:26:11;37.92;;;11.15;;
38123;SDS011;23934;47.998;9.832;2024-03-08T09:28:37;39.47;;;12.77;;
38123;SDS011;23934;47.998;9.832;2024-03-08T09:31:03;34.78;;;12.43;;
38123;SDS011;23934;47.998;9.832;2024-03-08T09:33:30;36.83;;;10.10;;
38123;SDS011;23934;47.998;9.832;2024-03-08T09:35:56;46.70;;;14.45;;
38123;SDS011;23934;47.998;9.832;2024-03-08T09:38:25;48.60;;;15.82;;
38123;SDS011;23934;47.998;9.832;2024-03-08T09:40:51;48.72;;;15.48;;
38123;SDS011;23934;47.998;9.832;2024-03-08T09:43:18;44.22;;;13.80;;
38123;SDS011;23934;47.998;9.832;2024-03-08T09:45:44;44.95;;;12.75;;
38123;SDS011;23934;47.998;9.832;2024-03-08T09:48:11;53.00;;;15.43;;
38123;SDS011;23934;47.998;9.832;2024-03-08T09:50:38;43.45;;;14.35;;
38123;SDS011;23934;47.998;9.832;2024-03-08T09:53:04;43.83;;;15.02;;
38123;SDS011;23934;47.998;9.832;2024-03-08T09:55:33;40.65;;;13.02;;
38123;SDS011;23934;47.998;9.832;2024-03-08T09:58:01;47.95;;;14.20;;
38123;SDS011;23934;47.998;9.832;2024-03-08T10:00:46;39.42;;;12.07;;
38123;SDS011;23934;47.998;9.832;2024-03-08T10:03:12;40.83;;;13.48;;
38123;SDS011;23934;47.998;9.832;2024-03-08T10:05:41;38.10;;;13.00;;
38123;SDS011;23934;47.998;9.832;2024-03-08T10:08:09;44.05;;;13.43;;
38123;SDS011;23934;47.998;9.832;2024-03-08T10:10:36;45.05;;;13.32;;
38123;SDS011;23934;47.998;9.832;2024-03-08T10:13:02;37.38;;;12.52;;
38123;SDS011;23934;47.998;9.832;2024-03-08T10:15:30;35.17;;;11.85;;
38123;SDS011;23934;47.998;9.832;2024-03-08T10:17:58;53.33;;;13.45;;
38123;SDS011;23934;47.998;9.832;2024-03-08T10:20:24;37.28;;;12.40;;
38123;SDS011;23934;47.998;9.832;2024-03-08T10:22:51;31.95;;;9.23;;
38123;SDS011;23934;47.998;9.832;2024-03-08T10:25:18;34.88;;;12.27;;
38123;SDS011;23934;47.998;9.832;2024-03-08T10:27:45;38.40;;;11.88;;
38123;SDS011;23934;47.998;9.832;2024-03-08T10:30:15;41.55;;;13.55;;
38123;SDS011;23934;47.998;9.832;2024-03-08T10:32:44;35.20;;;11.55;;
38123;SDS011;23934;47.998;9.832;2024-03-08T10:35:11;36.70;;;12.23;;
38123;SDS011;23934;47.998;9.832;2024-03-08T10:37:47;39.17;;;12.60;;
38123;SDS011;23934;47.998;9.832;2024-03-08T10:40:18;41.88;;;12.13;;
38123;SDS011;23934;47.998;9.832;2024-03-08T10:42:57;48.72;;;14.73;;
38123;SDS011;23934;47.998;9.832;2024-03-08T10:45:36;44.35;;;14.63;;
38123;SDS011;23934;47.998;9.832;2024-03-08T10:50:28;22.75;;;8.07;;
38123;SDS011;23934;47.998;9.832;2024-03-08T10:52:55;39.83;;;12.45;;
38123;SDS011;23934;47.998;9.832;2024-03-08T10:55:23;34.28;;;11.48;;
38123;SDS011;23934;47.998;9.832;2024-03-08T10:57:51;42.85;;;12.43;;
38123;SDS011;23934;47.998;9.832;2024-03-08T11:00:18;22.15;;;8.27;;
38123;SDS011;23934;47.998;9.832;2024-03-08T11:02:51;42.15;;;12.65;;
38123;SDS011;23934;47.998;9.832;2024-03-08T11:05:37;21.95;;;8.73;;
38123;SDS011;23934;47.998;9.832;2024-03-08T11:08:19;28.92;;;9.20;;
38123;SDS011;23934;47.998;9.832;2024-03-08T11:10:51;37.45;;;11.13;;
38123;SDS011;23934;47.998;9.832;2024-03-08T11:13:41;40.20;;;11.68;;
38123;SDS011;23934;47.998;9.832;2024-03-08T11:16:09;29.85;;;11.32;;
38123;SDS011;23934;47.998;9.832;2024-03-08T11:18:36;37.13;;;11.13;;
38123;SDS011;23934;47.998;9.832;2024-03-08T11:21:03;30.08;;;10.63;;
38123;SDS011;23934;47.998;9.832;2024-03-08T11:23:32;24.95;;;8.57;;
38123;SDS011;23934;47.998;9.832;2024-03-08T11:25:58;43.47;;;14.27;;
38123;SDS011;23934;47.998;9.832;2024-03-08T11:28:24;34.83;;;12.40;;
38123;SDS011;23934;47.998;9.832;2024-03-08T11:33:29;44.72;;;13.15;;
38123;SDS011;23934;47.998;9.832;2024-03-08T11:36:02;40.22;;;13.68;;
38123;SDS011;23934;47.998;9.832;2024-03-08T11:38:31;39.78;;;12.63;;
38123;SDS011;23934;47.998;9.832;2024-03-08T11:40:57;44.25;;;12.68;;
38123;SDS011;23934;47.998;9.832;2024-03-08T11:43:23;37.88;;;13.15;;
38123;SDS011;23934;47.998;9.832;2024-03-08T11:45:49;39.55;;;11.43;;
38123;SDS011;23934;47.998;9.832;2024-03-08T11:48:16;35.67;;;11.98;;
38123;SDS011;23934;47.998;9.832;2024-03-08T11:50:42;37.22;;;13.68;;
38123;SDS011;23934;47.998;9.832;2024-03-08T11:53:08;48.47;;;13.27;;
38123;SDS011;23934;47.998;9.832;2024-03-08T11:55:34;43.78;;;14.68;;
38123;SDS011;23934;47.998;9.832;2024-03-08T11:58:04;34.63;;;11.60;;
38123;SDS011;23934;47.998;9.832;2024-03-08T12:00:30;37.83;;;12.93;;
38123;SDS011;23934;47.998;9.832;2024-03-08T12:03:06;41.25;;;13.57;;
38123;SDS011;23934;47.998;9.832;2024-03-08T12:05:32;42.28;;;12.60;;
38123;SDS011;23934;47.998;9.832;2024-03-08T12:07:59;34.88;;;11.98;;
38123;SDS011;23934;47.998;9.832;2024-03-08T12:10:25;39.47;;;12.05;;
38123;SDS011;23934;47.998;9.832;2024-03-08T12:12:52;30.52;;;10.48;;
38123;SDS011;23934;47.998;9.832;2024-03-08T12:15:22;53.50;;;13.20;;
38123;SDS011;23934;47.998;9.832;2024-03-08T12:17:52;42.85;;;11.88;;
38123;SDS011;23934;47.998;9.832;2024-03-08T12:22:48;30.00;;;10.00;;
38123;SDS011;23934;47.998;9.832;2024-03-08T12:25:15;32.08;;;10.52;;
38123;SDS011;23934;47.998;9.832;2024-03-08T12:27:41;32.88;;;10.52;;
38123;SDS011;23934;47.998;9.832;2024-03-08T12:32:59;38.35;;;12.23;;
38123;SDS011;23934;47.998;9.832;2024-03-08T12:35:26;43.00;;;13.07;;
38123;SDS011;23934;47.998;9.832;2024-03-08T12:37:53;38.17;;;12.88;;
38123;SDS011;23934;47.998;9.832;2024-03-08T12:40:21;43.80;;;13.48;;
38123;SDS011;23934;47.998;9.832;2024-03-08T12:42:51;45.85;;;13.90;;
38123;SDS011;23934;47.998;9.832;2024-03-08T12:45:17;35.10;;;11.70;;
38123;SDS011;23934;47.998;9.832;2024-03-08T12:47:44;34.22;;;12.48;;
38123;SDS011;23934;47.998;9.832;2024-03-08T12:50:10;27.13;;;12.05;;
38123;SDS011;23934;47.998;9.832;2024-03-08T12:52:36;40.45;;;12.45;;
38123;SDS011;23934;47.998;9.832;2024-03-08T12:55:02;29.98;;;10.48;;
38123;SDS011;23934;47.998;9.832;2024-03-08T12:57:31;30.23;;;11.13;;
38123;SDS011;23934;47.998;9.832;2024-03-08T12:59:58;30.52;;;10.13;;
38123;SDS011;23934;47.998;9.832;2024-03-08T13:02:24;32.78;;;11.02;;
38123;SDS011;23934;47.998;9.832;2024-03-08T13:04:51;30.65;;;9.30;;
38123;SDS011;23934;47.998;9.832;2024-03-08T13:07:22;24.35;;;8.95;;
38123;SDS011;23934;47.998;9.832;2024-03-08T13:09:50;37.40;;;11.90;;
38123;SDS011;23934;47.998;9.832;2024-03-08T13:12:17;33.50;;;10.88;;
38123;SDS011;23934;47.998;9.832;2024-03-08T13:14:45;31.02;;;9.30;;
38123;SDS011;23934;47.998;9.832;2024-03-08T13:17:11;25.02;;;10.15;;
38123;SDS011;23934;47.998;9.832;2024-03-08T13:19:37;28.52;;;8.45;;
38123;SDS011;23934;47.998;9.832;2024-03-08T13:22:04;29.58;;;9.02;;
38123;SDS011;23934;47.998;9.832;2024-03-08T13:24:30;25.33;;;9.20;;
38123;SDS011;23934;47.998;9.832;2024-03-08T13:26:56;31.85;;;10.77;;
38123;SDS011;23934;47.998;9.832;2024-03-08T13:29:23;31.45;;;11.48;;
38123;SDS011;23934;47.998;9.832;2024-03-08T13:31:49;32.88;;;9.35;;
38123;SDS011;23934;47.998;9.832;2024-03-08T13:34:19;32.10;;;11.23;;
38123;SDS011;23934;47.998;9.832;2024-03-08T13:36:54;35.85;;;11.93;;
38123;SDS011;23934;47.998;9.832;2024-03-08T13:39:24;30.02;;;11.25;;
38123;SDS011;23934;47.998;9.832;2024-03-08T13:41:51;31.30;;;10.23;;
38123;SDS011;23934;47.998;9.832;2024-03-08T13:44:16;28.13;;;10.65;;
38123;SDS011;23934;47.998;9.832;2024-03-08T13:46:42;39.08;;;10.25;;
38123;SDS011;23934;47.998;9.832;2024-03-08T13:49:08;33.75;;;12.10;;
38123;SDS011;23934;47.998;9.832;2024-03-08T13:51:36;25.48;;;8.98;;
38123;SDS011;23934;47.998;9.832;2024-03-08T13:54:01;37.00;;;11.35;;
38123;SDS011;23934;47.998;9.832;2024-03-08T13:56:31;27.88;;;9.75;;
38123;SDS011;23934;47.998;9.832;2024-03-08T13:58:57;19.67;;;8.20;;
38123;SDS011;23934;47.998;9.832;2024-03-08T14:01:23;23.42;;;8.77;;
38123;SDS011;23934;47.998;9.832;2024-03-08T14:03:50;31.60;;;11.88;;
38123;SDS011;23934;47.998;9.832;2024-03-08T14:06:16;25.30;;;9.50;;
38123;SDS011;23934;47.998;9.832;2024-03-08T14:08:42;38.03;;;11.75;;
38123;SDS011;23934;47.998;9.832;2024-03-08T14:11:08;29.23;;;10.63;;
38123;SDS011;23934;47.998;9.832;2024-03-08T14:13:42;37.03;;;11.57;;
38123;SDS011;23934;47.998;9.832;2024-03-08T14:16:11;20.10;;;8.15;;
38123;SDS011;23934;47.998;9.832;2024-03-08T14:18:37;24.70;;;8.95;;
38123;SDS011;23934;47.998;9.832;2024-03-08T14:21:05;26.85;;;10.50;;
38123;SDS011;23934;47.998;9.832;2024-03-08T14:23:33;27.45;;;10.23;;
38123;SDS011;23934;47.998;9.832;2024-03-08T14:25:59;18.88;;;7.97;;
38123;SDS011;23934;47.998;9.832;2024-03-08T14:28:25;22.60;;;9.07;;
38123;SDS011;23934;47.998;9.832;2024-03-08T14:30:54;26.50;;;10.15;;
38123;SDS011;23934;47.998;9.832;2024-03-08T14:33:20;19.70;;;7.65;;